Port Jefferson, NY

11:32 AM EDT on September 22, 2014 (GMT -0400)
Sikorsky Memorial | Change Station
CLOSE
Current Station
Airport
Location: Bridgeport,
Elevation: 16 ft
Nearby Weather Stations

Elev 16 ft 41.16 °N, 73.13 °W | Updated 40 minutes ago

Partly Cloudy
Partly Cloudy
70 °F
Feels Like 70 °F
N
17
Wind Variable Wind from WNW
Gusts 24 mph

Today
High -- | Low -- °F
--% Chance of Precip.
Yesterday
High -- | Low -- °F
Precip. -- in
6:39 AM 6:49 PM
Waning Crescent, 2% visible
Pressure 29.83 in
Visibility 10.0 miles
Clouds Scattered Clouds 3800 ft
Dew Point 53 °F
Humidity 55%
Rainfall 0.00 in
Snow Depth Not available.
UV 5 out of 12
Pollen 3.30 out of 12
Ozone Good
Flu Activity Not available.
METAR KBDR 221452Z 29015G21KT 10SM SCT038 21/12 A2983 RMK AO2 SLP101 T02110117 51023

More Conditions Fewer Conditions

Pressure 29.83 in
Visibility 10.0 miles
Clouds Scattered Clouds 3800 ft
Dew Point 53 °F
Humidity 55%
Rainfall 0.00 in
Snow Depth Not available.
UV 5 out of 12
Pollen 3.30 out of 12
Ozone Good
Flu Activity Not available.
METAR KBDR 221452Z 29015G21KT 10SM SCT038 21/12 A2983 RMK AO2 SLP101 T02110117 51023

More Conditions Fewer Conditions

10-Day Weather Forecast

Almanac

Astronomy

Sep. 22, 2014 Rise Set
Actual Time 6:39 AM EDT 6:49 PM EDT
Civil Twilight 6:12 AM EDT 7:16 PM EDT
Nautical Twilight 5:40 AM EDT 7:48 PM EDT
Astronomical Twilight 5:07 AM EDT 8:21 PM EDT
Moon 5:05 AM EDT 5:55 PM EDT
Length of Visible Light 13h 04m
Length of Day
12h 09m
Tomorrow will be 2m 42s shorter.
Waning Crescent, 2% of the Moon is Illuminated
Today
Waning Crescent
Sep 24
New
Oct 1
First Quarter
Oct 8
Full
Oct 15
Last Quarter

Today's Extremes

State Highs State Lows

Community

WunderPhotos

Upload Photos

1,755,464 photos uploaded!

Nearby

Air Quality

  Air Quality AQ Index Pollutant
Yesterday Good
OZONE
Current Good
OZONE
Monday Good
OZONE
Monday Good
PM2.5

Snow Depth

Station Depth Elevation
No new snow has been reported.

Earthquake Activity

City Distance Mag. Time & Date
No recent earthquake activity has been reported nearby.
Minimum magnitude displayed is 2.5.

Coastal Water Temperatures

Place Temperature
Bridgeport, CT 69.1 °F

Nearby Weather Stations